Time;durP1;ratioP1;P1;durP2;ratioP2;P2;SDS_P1;SDS_P2;PMS_P1;PMS_P2;Temp;Humidity;BMP_temperature;BMP_pressure;BME280_temperature;BME280_humidity;BME280_pressure;Samples;Min_cycle;Max_cycle;Signal;HPM_P1;HPM_P2
2022/05/19 00:00:33;;;;;;;9.75;3.60;;;;;;;-141.50;100.00;63355.56;5089351;28;20067;-82
2022/05/19 00:03:00;;;;;;;8.70;3.78;;;;;;;-141.50;100.00;63355.56;5088685;28;20168;-80
2022/05/19 00:05:27;;;;;;;6.97;3.50;;;;;;;-141.50;100.00;63355.56;5091348;28;20113;-81
2022/05/19 00:07:53;;;;;;;7.60;3.60;;;;;;;-141.50;100.00;63355.56;5087573;28;20478;-81
2022/05/19 00:10:20;;;;;;;9.25;3.58;;;;;;;-141.50;100.00;63355.56;5077608;28;20056;-83
2022/05/19 00:12:46;;;;;;;8.02;4.00;;;;;;;-141.50;100.00;63355.56;5076743;28;20087;-83
2022/05/19 00:15:13;;;;;;;13.55;3.97;;;;;;;-141.50;100.00;63355.56;5083695;28;20048;-83
2022/05/19 00:17:40;;;;;;;7.15;3.88;;;;;;;-141.50;100.00;63355.56;5092238;28;20369;-84
2022/05/19 00:20:07;;;;;;;7.72;3.78;;;;;;;-141.50;100.00;63355.56;5098899;28;20048;-84
2022/05/19 00:22:34;;;;;;;8.95;3.78;;;;;;;-141.50;100.00;63355.56;5100027;28;20048;-84
2022/05/19 00:25:00;;;;;;;5.82;3.70;;;;;;;-141.50;100.00;63355.56;5101889;28;20055;-81
2022/05/19 00:27:27;;;;;;;7.75;3.85;;;;;;;-141.50;100.00;63355.56;5105794;28;20052;-81
2022/05/19 00:29:53;;;;;;;10.00;3.58;;;;;;;-141.50;100.00;63355.56;5099558;28;20044;-84
2022/05/19 00:32:20;;;;;;;5.60;3.30;;;;;;;-141.50;100.00;63355.56;5096906;28;20059;-85
2022/05/19 00:34:46;;;;;;;8.25;3.40;;;;;;;-141.50;100.00;63355.56;5096777;28;20102;-84
2022/05/19 00:37:13;;;;;;;7.03;3.55;;;;;;;-141.50;100.00;63355.56;5081465;28;20098;-83
2022/05/19 00:39:39;;;;;;;6.63;3.28;;;;;;;-141.50;100.00;63355.56;5077636;28;20104;-83
2022/05/19 00:45:21;;;;;;;10.05;3.63;;;;;;;-141.50;100.00;63355.56;5065603;28;20059;-83
2022/05/19 00:47:58;;;;;;;6.05;3.38;;;;;;;-141.50;100.00;63355.56;5077387;28;20389;-84
2022/05/19 00:50:34;;;;;;;7.40;3.55;;;;;;;-141.50;100.00;63355.56;5074725;28;20408;-82
2022/05/19 00:53:12;;;;;;;5.80;3.25;;;;;;;-141.50;100.00;63355.56;5075414;28;20132;-83
2022/05/19 00:55:49;;;;;;;7.50;3.35;;;;;;;-141.50;100.00;63355.56;5076228;28;20079;-80
2022/05/19 00:58:23;;;;;;;12.02;3.40;;;;;;;-141.50;100.00;63355.56;5094644;28;20087;-82
2022/05/19 01:00:50;;;;;;;6.22;3.15;;;;;;;-141.50;100.00;63355.56;5075846;28;20267;-83
2022/05/19 01:03:18;;;;;;;6.63;3.20;;;;;;;-141.50;100.00;63355.56;5073959;28;20563;-82
2022/05/19 01:06:00;;;;;;;6.35;3.35;;;;;;;-141.50;100.00;63355.56;5092359;28;20056;-82
2022/05/19 01:08:29;;;;;;;6.10;3.17;;;;;;;-141.50;100.00;63355.56;5091345;28;20107;-83
2022/05/19 01:10:57;;;;;;;8.35;3.55;;;;;;;-141.50;100.00;63355.56;5091637;28;20047;-81
2022/05/19 01:13:29;;;;;;;9.65;3.58;;;;;;;-141.50;100.00;63355.56;5098244;28;20412;-82
2022/05/19 01:16:00;;;;;;;8.20;3.67;;;;;;;-141.50;100.00;63355.56;5074106;28;20392;-84
2022/05/19 01:18:31;;;;;;;6.35;3.55;;;;;;;-141.50;100.00;63355.56;5091938;28;20580;-81
2022/05/19 01:21:01;;;;;;;7.38;3.15;;;;;;;-141.50;100.00;63355.56;5094910;28;20056;-85
2022/05/19 01:23:49;;;;;;;9.23;3.35;;;;;;;-141.50;100.00;63355.56;5076191;28;20055;-84
2022/05/19 01:26:28;;;;;;;6.93;3.53;;;;;;;-141.50;100.00;63355.56;5075402;28;20074;-83
2022/05/19 01:28:57;;;;;;;5.70;3.30;;;;;;;-141.50;100.00;63355.56;5075720;28;20048;-82
2022/05/19 01:31:37;;;;;;;7.28;3.40;;;;;;;-141.50;100.00;63355.56;5075338;28;20495;-84
2022/05/19 01:34:06;;;;;;;7.93;3.20;;;;;;;-141.50;100.00;63355.56;5093219;28;20056;-84
2022/05/19 01:36:34;;;;;;;5.28;3.30;;;;;;;-141.50;100.00;63355.56;5091947;28;20048;-82
2022/05/19 01:39:04;;;;;;;6.40;3.40;;;;;;;-141.50;100.00;63355.56;5108830;28;20044;-84
2022/05/19 01:41:34;;;;;;;6.15;3.80;;;;;;;-141.50;100.00;63355.56;5114727;28;20086;-82
2022/05/19 01:44:34;;;;;;;6.55;2.90;;;;;;;-141.50;100.00;63355.56;5115067;28;20074;-84
2022/05/19 01:47:20;;;;;;;8.05;3.25;;;;;;;-141.50;100.00;63355.56;5116102;28;20102;-82
2022/05/19 01:50:02;;;;;;;8.18;3.33;;;;;;;-141.50;100.00;63355.56;5115476;28;20048;-81
2022/05/19 01:52:36;;;;;;;6.07;3.10;;;;;;;-141.50;100.00;63355.56;5112487;28;20344;-82
2022/05/19 01:55:14;;;;;;;5.18;3.22;;;;;;;-141.50;100.00;63355.56;5112069;28;20055;-80
2022/05/19 01:58:00;;;;;;;8.80;3.80;;;;;;;-141.50;100.00;63355.56;5103201;28;20101;-83
2022/05/19 02:00:28;;;;;;;9.98;3.70;;;;;;;-141.50;100.00;63355.56;5118578;28;20047;-80
2022/05/19 02:03:05;;;;;;;6.00;3.50;;;;;;;-141.50;100.00;63355.56;5115830;28;20282;-80
2022/05/19 02:05:54;;;;;;;6.65;3.38;;;;;;;-141.50;100.00;63355.56;5113787;28;20078;-83
2022/05/19 02:08:25;;;;;;;8.02;3.55;;;;;;;-141.50;100.00;63355.56;5120856;28;20048;-83
2022/05/19 02:10:56;;;;;;;9.88;3.33;;;;;;;-141.50;100.00;63355.56;5102113;28;20059;-84
2022/05/19 02:13:23;;;;;;;6.65;4.00;;;;;;;-141.50;100.00;63355.56;5101666;28;20563;-81
2022/05/19 02:15:52;;;;;;;6.65;4.00;;;;;;;-141.50;100.00;63355.56;5118027;28;20047;-84
2022/05/19 02:18:25;;;;;;;8.52;4.45;;;;;;;-141.50;100.00;63355.56;5098637;28;20129;-82
2022/05/19 02:20:57;;;;;;;12.82;4.43;;;;;;;-141.50;100.00;63355.56;5081188;28;20048;-81
2022/05/19 02:23:24;;;;;;;9.80;4.25;;;;;;;-141.50;100.00;63355.56;5080141;28;20071;-83
2022/05/19 02:25:55;;;;;;;5.10;3.70;;;;;;;-141.50;100.00;63355.56;5091921;28;20083;-81
2022/05/19 02:28:32;;;;;;;10.30;4.03;;;;;;;-141.50;100.00;63355.56;5074086;28;20052;-84
2022/05/19 02:30:59;;;;;;;12.32;4.55;;;;;;;-141.50;100.00;63355.56;5076476;28;20052;-85
2022/05/19 02:33:26;;;;;;;6.45;3.78;;;;;;;-141.50;100.00;63355.56;5078516;28;20059;-84
2022/05/19 02:35:53;;;;;;;7.80;3.90;;;;;;;-141.50;100.00;63355.56;5059777;28;20059;-85
2022/05/19 02:38:21;;;;;;;6.07;3.60;;;;;;;-141.50;100.00;63355.56;5060902;28;20118;-81
2022/05/19 02:40:48;;;;;;;6.10;3.70;;;;;;;-141.50;100.00;63355.56;5084653;28;20060;-80
2022/05/19 02:43:16;;;;;;;8.63;3.83;;;;;;;-141.50;100.00;63355.56;5075044;28;20412;-82
2022/05/19 02:45:48;;;;;;;6.53;3.78;;;;;;;-141.50;100.00;63355.56;5040621;28;20053;-82
2022/05/19 02:48:15;;;;;;;8.90;4.05;;;;;;;-141.50;100.00;63355.56;5075860;28;20114;-82
2022/05/19 02:50:44;;;;;;;6.10;3.95;;;;;;;-141.50;100.00;63355.56;5056199;28;20044;-82
2022/05/19 02:53:10;;;;;;;9.02;4.10;;;;;;;-141.50;100.00;63355.56;5055332;28;20049;-82
2022/05/19 02:55:39;;;;;;;8.40;4.57;;;;;;;-141.50;100.00;63355.56;5055124;28;20109;-81
2022/05/19 02:58:10;;;;;;;8.60;5.22;;;;;;;-141.50;100.00;63355.56;5055847;28;20049;-82
2022/05/19 03:00:39;;;;;;;8.75;4.90;;;;;;;-141.50;100.00;63355.56;5072981;28;20084;-82
2022/05/19 03:03:05;;;;;;;8.75;4.80;;;;;;;-141.50;100.00;63355.56;5073261;28;20048;-82
2022/05/19 03:05:33;;;;;;;9.70;4.28;;;;;;;-141.50;100.00;63355.56;5055198;28;20175;-81
2022/05/19 03:08:04;;;;;;;8.55;4.22;;;;;;;-141.50;100.00;63355.56;5054567;28;20067;-83
2022/05/19 03:10:31;;;;;;;7.88;4.10;;;;;;;-141.50;100.00;63355.56;5060504;28;20102;-82
2022/05/19 03:12:58;;;;;;;7.68;4.10;;;;;;;-141.50;100.00;63355.56;5074968;28;20192;-81
2022/05/19 03:15:25;;;;;;;9.27;4.07;;;;;;;-141.50;100.00;63355.56;5074256;28;20075;-81
2022/05/19 03:17:51;;;;;;;10.25;4.20;;;;;;;-141.50;100.00;63355.56;5055765;28;20475;-82
2022/05/19 03:20:18;;;;;;;7.80;4.15;;;;;;;-141.50;100.00;63355.56;5062325;28;20135;-82
2022/05/19 03:22:48;;;;;;;12.07;5.03;;;;;;;-141.50;100.00;63355.56;5085898;28;20067;-81
2022/05/19 03:25:15;;;;;;;9.15;5.20;;;;;;;-141.50;100.00;63355.56;5084596;28;20049;-84
2022/05/19 03:27:42;;;;;;;12.02;4.80;;;;;;;-141.50;100.00;63355.56;5086004;28;20048;-83
2022/05/19 03:30:15;;;;;;;11.18;4.50;;;;;;;-141.50;100.00;63355.56;5081023;28;20076;-81
2022/05/19 03:32:44;;;;;;;8.63;4.20;;;;;;;-141.50;100.00;63355.56;5059447;28;20078;-81
2022/05/19 03:35:14;;;;;;;7.32;4.20;;;;;;;-141.50;100.00;63355.56;5092235;28;20075;-82
2022/05/19 03:37:41;;;;;;;8.07;4.30;;;;;;;-141.50;100.00;63355.56;5094209;28;20117;-82
2022/05/19 03:40:09;;;;;;;7.38;4.00;;;;;;;-141.50;100.00;63355.56;5075536;28;20048;-82
2022/05/19 03:42:36;;;;;;;8.38;4.22;;;;;;;-141.50;100.00;63355.56;5096351;28;20052;-81
2022/05/19 03:45:04;;;;;;;7.50;4.30;;;;;;;-141.50;100.00;63355.56;5095139;28;20051;-85
2022/05/19 03:47:31;;;;;;;9.00;4.47;;;;;;;-141.50;100.00;63355.56;5094727;28;20090;-84
2022/05/19 03:49:58;;;;;;;9.13;5.00;;;;;;;-141.50;100.00;63355.56;5076457;28;20069;-84
2022/05/19 03:52:28;;;;;;;8.55;4.55;;;;;;;-141.50;100.00;63355.56;5074609;28;20136;-83
2022/05/19 03:54:57;;;;;;;8.90;4.72;;;;;;;-141.50;100.00;63355.56;5082169;28;20078;-80
2022/05/19 03:57:24;;;;;;;8.35;4.65;;;;;;;-141.50;100.00;63355.56;5108733;28;20047;-80
2022/05/19 03:59:50;;;;;;;9.52;4.80;;;;;;;-141.50;100.00;63355.56;5078806;28;20040;-79
2022/05/19 04:02:17;;;;;;;7.57;4.75;;;;;;;-141.50;100.00;63355.56;5103239;28;20048;-83
2022/05/19 04:05:01;;;;;;;8.52;5.03;;;;;;;-141.50;100.00;63355.56;5103563;28;20062;-83
2022/05/19 04:07:27;;;;;;;11.13;5.28;;;;;;;-141.50;100.00;63355.56;5076748;28;20117;-83
2022/05/19 04:09:54;;;;;;;13.85;5.43;;;;;;;-141.50;100.00;63355.56;5077516;28;20136;-82
2022/05/19 04:12:21;;;;;;;10.38;5.60;;;;;;;-141.50;100.00;63355.56;5074336;28;20199;-84
2022/05/19 04:14:49;;;;;;;10.93;5.30;;;;;;;-141.50;100.00;63355.56;5080028;28;20444;-83
2022/05/19 04:17:16;;;;;;;9.25;4.95;;;;;;;-141.50;100.00;63355.56;5068697;28;20044;-83
2022/05/19 04:19:43;;;;;;;10.88;5.38;;;;;;;-141.50;100.00;63355.56;5061628;28;20045;-83
2022/05/19 04:22:10;;;;;;;12.52;5.30;;;;;;;-141.50;100.00;63355.56;5076874;28;20100;-83
2022/05/19 04:24:37;;;;;;;12.85;5.65;;;;;;;-141.50;100.00;63355.56;5057779;28;20048;-86
2022/05/19 04:27:04;;;;;;;14.90;5.47;;;;;;;-141.50;100.00;63355.56;5081819;28;20443;-84
2022/05/19 04:29:31;;;;;;;11.32;5.32;;;;;;;-141.50;100.00;63355.56;5095392;28;20040;-81
2022/05/19 04:31:58;;;;;;;10.63;5.13;;;;;;;-141.50;100.00;63355.56;5096066;28;20138;-82
2022/05/19 04:34:25;;;;;;;12.90;5.07;;;;;;;-141.50;100.00;63355.56;5097682;28;20107;-83
2022/05/19 04:36:52;;;;;;;11.00;5.65;;;;;;;-141.50;100.00;63355.56;5090369;28;20060;-83
2022/05/19 04:39:18;;;;;;;14.02;5.65;;;;;;;-141.50;100.00;63355.56;5073061;28;20048;-80
2022/05/19 04:41:45;;;;;;;11.43;5.55;;;;;;;-141.50;100.00;63355.56;5092867;28;20052;-86
2022/05/19 04:44:11;;;;;;;9.40;5.50;;;;;;;-141.50;100.00;63355.56;5100034;28;20062;-83
2022/05/19 04:46:38;;;;;;;8.75;5.50;;;;;;;-141.50;100.00;63355.56;5076109;28;20067;-84
2022/05/19 04:49:04;;;;;;;10.55;5.15;;;;;;;-141.50;100.00;63355.56;5073382;28;20123;-82
2022/05/19 04:51:31;;;;;;;11.52;5.38;;;;;;;-141.50;100.00;63355.56;5091672;28;20048;-82
2022/05/19 04:53:58;;;;;;;11.02;5.03;;;;;;;-141.50;100.00;63355.56;5065434;28;20475;-83
2022/05/19 04:56:24;;;;;;;10.23;4.78;;;;;;;-141.50;100.00;63355.56;5078931;28;20126;-84
2022/05/19 04:58:51;;;;;;;9.45;5.50;;;;;;;-141.50;100.00;63355.56;5086199;28;20048;-82
2022/05/19 05:01:17;;;;;;;9.52;4.97;;;;;;;-141.50;100.00;63355.56;5085398;28;20056;-83
2022/05/19 05:03:44;;;;;;;14.68;5.38;;;;;;;-141.50;100.00;63355.56;5074966;28;20049;-85
2022/05/19 05:06:11;;;;;;;9.32;4.70;;;;;;;-141.50;100.00;63355.56;5073718;28;20106;-86
2022/05/19 05:08:37;;;;;;;8.52;4.72;;;;;;;-141.50;100.00;63355.56;5085312;28;20515;-85
2022/05/19 05:11:04;;;;;;;7.63;4.43;;;;;;;-141.50;100.00;63355.56;5079730;28;20384;-86
2022/05/19 05:13:31;;;;;;;9.18;4.38;;;;;;;-141.50;100.00;63355.56;5095008;28;20492;-87
2022/05/19 05:15:59;;;;;;;10.32;3.80;;;;;;;-141.50;100.00;63355.56;5074057;28;20139;-87
2022/05/19 05:18:25;;;;;;;11.88;4.20;;;;;;;-141.50;100.00;63355.56;5056134;28;20112;-85
2022/05/19 05:20:52;;;;;;;11.07;3.90;;;;;;;-141.50;100.00;63355.56;5069297;28;20366;-86
2022/05/19 05:23:19;;;;;;;8.60;3.78;;;;;;;-141.50;100.00;63355.56;5070624;28;20056;-85
2022/05/19 05:25:45;;;;;;;9.45;3.67;;;;;;;-141.50;100.00;63355.56;5074967;28;20057;-85
2022/05/19 05:28:15;;;;;;;8.40;3.55;;;;;;;-141.50;100.00;63355.56;5055004;28;20158;-85
2022/05/19 05:30:41;;;;;;;9.27;3.47;;;;;;;-141.50;100.00;63355.56;5073552;28;20044;-85
2022/05/19 05:33:09;;;;;;;7.25;3.35;;;;;;;-141.50;100.00;63355.56;5074878;28;20044;-86
2022/05/19 05:35:36;;;;;;;17.15;3.75;;;;;;;-141.50;100.00;63355.56;5068620;28;20497;-84
2022/05/19 05:38:07;;;;;;;9.23;3.67;;;;;;;-141.50;100.00;63355.56;5074827;28;20052;-86
2022/05/19 05:40:37;;;;;;;6.82;3.30;;;;;;;-141.50;100.00;63355.56;5075475;28;20036;-83
2022/05/19 05:43:12;;;;;;;8.13;3.38;;;;;;;-141.50;100.00;63355.56;5094970;28;20080;-83
2022/05/19 05:45:41;;;;;;;6.63;3.25;;;;;;;-141.50;100.00;63355.56;5077351;28;20062;-81
2022/05/19 05:48:09;;;;;;;9.68;3.40;;;;;;;-141.50;100.00;63355.56;5077882;28;20129;-83
2022/05/19 05:50:36;;;;;;;11.00;3.50;;;;;;;-141.50;100.00;63355.56;5092913;28;20055;-83
2022/05/19 05:53:04;;;;;;;9.38;3.10;;;;;;;-141.50;100.00;63355.56;5093530;28;20052;-83
2022/05/19 05:55:31;;;;;;;5.88;2.95;;;;;;;-141.50;100.00;63355.56;5075228;28;20052;-82
2022/05/19 05:57:57;;;;;;;8.80;2.80;;;;;;;-141.50;100.00;63355.56;5088263;28;20052;-82
2022/05/19 06:00:23;;;;;;;7.50;2.70;;;;;;;-141.50;100.00;63355.56;5071983;28;20067;-79
2022/05/19 06:02:51;;;;;;;7.22;3.03;;;;;;;-141.50;100.00;63355.56;5088713;28;20082;-83
2022/05/19 06:05:18;;;;;;;6.32;2.83;;;;;;;-141.50;100.00;63355.56;5077833;28;20028;-80
2022/05/19 06:07:46;;;;;;;7.70;2.60;;;;;;;-141.50;100.00;63355.56;5079382;28;20028;-79
2022/05/19 06:10:13;;;;;;;5.43;2.40;;;;;;;-141.50;100.00;63355.56;5080357;28;20032;-80
2022/05/19 06:12:41;;;;;;;6.95;2.47;;;;;;;-141.50;100.00;63355.56;5078150;28;20036;-82
2022/05/19 06:15:12;;;;;;;7.00;2.10;;;;;;;-141.50;100.00;63355.56;5096198;28;20067;-82
2022/05/19 06:17:41;;;;;;;6.63;2.08;;;;;;;-141.50;100.00;63355.56;5110732;28;20044;-81
2022/05/19 06:20:12;;;;;;;6.82;2.40;;;;;;;-141.50;100.00;63355.56;5098595;28;20051;-81
2022/05/19 06:22:39;;;;;;;3.58;1.98;;;;;;;-141.50;100.00;63355.56;5096869;28;20063;-82
2022/05/19 06:25:06;;;;;;;5.60;1.70;;;;;;;-141.50;100.00;63355.56;5100297;28;20052;-85
2022/05/19 06:27:33;;;;;;;5.43;1.70;;;;;;;-141.50;100.00;63355.56;5095738;28;20052;-81
2022/05/19 06:29:59;;;;;;;4.07;1.73;;;;;;;-141.50;100.00;63355.56;5114121;28;20032;-82
2022/05/19 06:32:29;;;;;;;3.08;1.73;;;;;;;-141.50;100.00;63355.56;5113295;28;20056;-82
2022/05/19 06:34:55;;;;;;;3.28;1.67;;;;;;;-141.50;100.00;63355.56;5110921;28;20047;-82
2022/05/19 06:37:22;;;;;;;8.85;1.73;;;;;;;-141.50;100.00;63355.56;5103278;28;20101;-79
2022/05/19 06:39:51;;;;;;;5.60;1.67;;;;;;;-141.50;100.00;63355.56;5099534;28;20044;-82
2022/05/19 06:42:17;;;;;;;4.18;1.60;;;;;;;-141.50;100.00;63355.56;5094224;28;20208;-80
2022/05/19 06:44:44;;;;;;;3.30;1.60;;;;;;;-141.50;100.00;63355.56;5077613;28;20056;-81
2022/05/19 06:47:16;;;;;;;5.07;1.73;;;;;;;-141.50;100.00;63355.56;5092128;28;20052;-81
2022/05/19 06:49:51;;;;;;;3.25;1.60;;;;;;;-141.50;100.00;63355.56;5074472;28;20052;-84
2022/05/19 06:52:28;;;;;;;5.72;1.50;;;;;;;-141.50;100.00;63355.56;5093166;28;20509;-80
2022/05/19 06:54:58;;;;;;;4.95;2.10;;;;;;;-141.50;100.00;63355.56;5075966;28;20052;-81
2022/05/19 06:57:27;;;;;;;5.65;1.70;;;;;;;-141.50;100.00;63355.56;5075474;28;20150;-83
2022/05/19 06:59:54;;;;;;;6.40;1.80;;;;;;;-141.50;100.00;63355.56;5080598;28;20052;-81
2022/05/19 07:02:24;;;;;;;6.30;1.60;;;;;;;-141.50;100.00;63355.56;5097306;28;20079;-82
2022/05/19 07:04:51;;;;;;;10.25;1.73;;;;;;;-141.50;100.00;63355.56;5078495;28;20052;-81
2022/05/19 07:07:18;;;;;;;3.50;1.55;;;;;;;-141.50;100.00;63355.56;5093529;28;20097;-83
2022/05/19 07:09:45;;;;;;;5.53;1.42;;;;;;;-141.50;100.00;63355.56;5075820;28;20108;-83
2022/05/19 07:12:12;;;;;;;9.73;1.20;;;;;;;-141.50;100.00;63355.56;5093321;28;20087;-83
2022/05/19 07:14:40;;;;;;;2.75;1.10;;;;;;;-141.50;100.00;63355.56;5093488;28;20492;-81
2022/05/19 07:17:07;;;;;;;7.93;1.23;;;;;;;-141.50;100.00;63355.56;5093196;28;20058;-81
2022/05/19 07:22:22;;;;;;;8.30;1.23;;;;;;;-141.50;100.00;63355.56;5093063;28;20389;-83
2022/05/19 07:24:50;;;;;;;4.18;1.40;;;;;;;-141.50;100.00;63355.56;5073817;28;20063;-79
2022/05/19 07:27:18;;;;;;;2.15;1.23;;;;;;;-141.50;100.00;63355.56;5091624;28;20048;-82
2022/05/19 07:29:44;;;;;;;2.83;1.08;;;;;;;-141.50;100.00;63355.56;5091763;28;20508;-81
2022/05/19 07:32:19;;;;;;;4.45;1.20;;;;;;;-141.50;100.00;63355.56;5075468;28;20090;-81
2022/05/19 07:34:45;;;;;;;2.80;1.30;;;;;;;-141.50;100.00;63355.56;5091625;28;20048;-82
2022/05/19 07:37:12;;;;;;;2.47;1.02;;;;;;;-141.50;100.00;63355.56;5090268;28;20626;-80
2022/05/19 07:39:39;;;;;;;5.15;1.10;;;;;;;-141.50;100.00;63355.56;5090874;28;20059;-81
2022/05/19 07:42:06;;;;;;;5.82;1.20;;;;;;;-141.50;100.00;63355.56;5091888;28;20101;-83
2022/05/19 07:44:32;;;;;;;5.72;1.30;;;;;;;-141.50;100.00;63355.56;5092698;28;20044;-82
2022/05/19 07:46:59;;;;;;;2.65;1.00;;;;;;;-141.50;100.00;63355.56;5074517;28;20048;-83
2022/05/19 07:49:26;;;;;;;4.00;1.40;;;;;;;-141.50;100.00;63355.56;5093192;28;20079;-83
2022/05/19 07:51:52;;;;;;;4.43;1.08;;;;;;;-141.50;100.00;63355.56;5093397;28;20055;-84
2022/05/19 07:54:24;;;;;;;7.30;1.45;;;;;;;-141.50;100.00;63355.56;5095811;28;20064;-82
2022/05/19 07:56:51;;;;;;;3.60;1.20;;;;;;;-141.50;100.00;63355.56;5087048;28;20472;-81
2022/05/19 07:59:19;;;;;;;7.35;1.00;;;;;;;-141.50;100.00;63355.56;5075752;28;20051;-83
2022/05/19 08:01:48;;;;;;;5.15;1.20;;;;;;;-141.50;100.00;63355.56;5075580;28;20059;-84
2022/05/19 08:04:19;;;;;;;4.13;1.10;;;;;;;-141.50;100.00;63355.56;5093639;28;20059;-83
2022/05/19 08:06:47;;;;;;;1.60;1.00;;;;;;;-141.50;100.00;63355.56;5074877;28;20056;-82
2022/05/19 08:11:59;;;;;;;6.15;1.00;;;;;;;-141.50;100.00;63355.56;5093583;28;20123;-82
2022/05/19 08:17:29;;;;;;;5.03;1.10;;;;;;;-141.50;100.00;63355.56;5077416;28;20131;-80
2022/05/19 08:19:55;;;;;;;1.60;0.95;;;;;;;-141.50;100.00;63355.56;5070518;28;20148;-82
2022/05/19 08:22:22;;;;;;;4.05;1.30;;;;;;;-141.50;100.00;63355.56;5071266;28;20052;-82
2022/05/19 08:24:49;;;;;;;5.57;1.17;;;;;;;-141.50;100.00;63355.56;5076978;28;20056;-81
2022/05/19 08:27:18;;;;;;;2.95;1.02;;;;;;;-141.50;100.00;63355.56;5058922;28;20048;-82
2022/05/19 08:29:45;;;;;;;4.88;1.30;;;;;;;-141.50;100.00;63355.56;5072377;28;20373;-81
2022/05/19 08:32:12;;;;;;;5.75;1.05;;;;;;;-141.50;100.00;63355.56;5072125;28;20052;-82
2022/05/19 08:34:38;;;;;;;4.25;1.02;;;;;;;-141.50;100.00;63355.56;5073882;28;20083;-82
2022/05/19 08:37:06;;;;;;;2.38;1.05;;;;;;;-141.50;100.00;63355.56;5075808;28;20547;-83
2022/05/19 08:39:32;;;;;;;3.08;0.90;;;;;;;-141.50;100.00;63355.56;5053474;28;20053;-83
2022/05/19 08:42:03;;;;;;;4.50;1.10;;;;;;;-141.50;100.00;63355.56;5072347;28;20162;-83
2022/05/19 08:44:37;;;;;;;5.25;0.93;;;;;;;-141.50;100.00;63355.56;5072076;28;20052;-82
2022/05/19 08:47:07;;;;;;;4.70;1.00;;;;;;;-141.50;100.00;63355.56;5054945;28;20087;-84
2022/05/19 08:49:40;;;;;;;5.30;1.02;;;;;;;-141.50;100.00;63355.56;5053859;28;20071;-82
2022/05/19 08:52:10;;;;;;;6.63;1.30;;;;;;;-141.50;100.00;63355.56;5074044;28;20044;-80
2022/05/19 08:54:40;;;;;;;2.90;0.98;;;;;;;-141.50;100.00;63355.56;5081103;28;20056;-82
2022/05/19 08:57:12;;;;;;;7.75;1.40;;;;;;;-141.50;100.00;63355.56;5072480;28;20101;-83
2022/05/19 09:00:17;;;;;;;9.50;1.70;;;;;;;-141.50;100.00;63355.56;5054050;28;20144;-82
2022/05/19 09:03:05;;;;;;;3.30;1.33;;;;;;;-141.50;100.00;63355.56;5072323;28;20056;-81
2022/05/19 09:05:49;;;;;;;2.85;1.27;;;;;;;-141.50;100.00;63355.56;5051354;28;20527;-81
2022/05/19 09:08:19;;;;;;;2.30;1.00;;;;;;;-141.50;100.00;63355.56;5051401;28;20048;-81
2022/05/19 09:11:07;;;;;;;2.90;1.38;;;;;;;-141.50;100.00;63355.56;5071406;28;20620;-81
2022/05/19 09:13:55;;;;;;;4.95;1.17;;;;;;;-141.50;100.00;63355.56;5074185;28;20125;-81
2022/05/19 09:16:26;;;;;;;1.38;0.98;;;;;;;-141.50;100.00;63355.56;5060385;28;20056;-82
2022/05/19 09:19:03;;;;;;;3.20;1.00;;;;;;;-141.50;100.00;63355.56;5096362;28;20056;-83
2022/05/19 09:21:29;;;;;;;4.88;1.00;;;;;;;-141.50;100.00;63355.56;5096154;28;20087;-82
2022/05/19 09:23:56;;;;;;;3.40;1.00;;;;;;;-141.50;100.00;63355.56;5077275;28;20389;-84
2022/05/19 09:26:46;;;;;;;8.90;1.48;;;;;;;-141.50;100.00;63355.56;5077082;28;20351;-81
2022/05/19 09:29:19;;;;;;;3.67;1.13;;;;;;;-141.50;100.00;63355.56;5095022;28;20583;-83
2022/05/19 09:31:46;;;;;;;3.67;1.02;;;;;;;-141.50;100.00;63355.56;5076176;28;20456;-81
2022/05/19 09:34:15;;;;;;;4.65;1.08;;;;;;;-141.50;100.00;63355.56;5096862;28;20094;-83
2022/05/19 09:37:00;;;;;;;2.83;1.00;;;;;;;-141.50;100.00;63355.56;5082193;28;20094;-82
2022/05/19 09:39:33;;;;;;;3.80;1.00;;;;;;;-141.50;100.00;63355.56;5099697;28;20067;-83
2022/05/19 09:42:08;;;;;;;5.43;1.23;;;;;;;-141.50;100.00;63355.56;5097407;28;20048;-84
2022/05/19 09:44:37;;;;;;;;;;;;;;;-141.50;100.00;63355.56;5097429;28;20487;-83
2022/05/19 09:47:41;;;;;;;3.35;1.23;;;;;;;-141.50;100.00;63355.56;5083009;28;20000;-82
2022/05/19 09:50:16;;;;;;;3.40;1.10;;;;;;;-141.50;100.00;63355.56;4977952;28;20444;-84
2022/05/19 09:52:46;;;;;;;1.83;1.10;;;;;;;-141.50;100.00;63355.56;5080113;28;20044;-82
2022/05/19 09:55:15;;;;;;;4.00;1.48;;;;;;;-141.50;100.00;63355.56;5093552;28;20109;-80
2022/05/19 09:57:52;;;;;;;2.97;1.13;;;;;;;-141.50;100.00;63355.56;5093596;28;20075;-84
2022/05/19 10:00:31;;;;;;;3.58;1.13;;;;;;;-141.50;100.00;63355.56;5076647;28;20091;-82
2022/05/19 10:03:00;;;;;;;2.75;1.10;;;;;;;-141.50;100.00;63355.56;5097767;28;20060;-84
2022/05/19 10:05:56;;;;;;;4.28;1.20;;;;;;;-141.50;100.00;63355.56;5078698;28;20052;-82
2022/05/19 10:08:35;;;;;;;5.25;1.30;;;;;;;-141.50;100.00;63355.56;5076607;28;20094;-83
2022/05/19 10:11:12;;;;;;;5.35;1.40;;;;;;;-141.50;100.00;63355.56;5097606;28;20072;-83
2022/05/19 10:13:48;;;;;;;3.22;1.20;;;;;;;-141.50;100.00;63355.56;5096969;28;20058;-83
2022/05/19 10:16:39;;;;;;;2.70;1.27;;;;;;;-141.50;100.00;63355.56;5097250;28;20400;-81
2022/05/19 10:19:05;;;;;;;2.50;1.40;;;;;;;-141.50;100.00;63355.56;5083510;28;20076;-80
2022/05/19 10:21:53;;;;;;;2.92;1.10;;;;;;;-141.50;100.00;63355.56;5064333;28;20056;-81
2022/05/19 10:24:38;;;;;;;3.17;1.05;;;;;;;-141.50;100.00;63355.56;5080729;28;20080;-81
2022/05/19 10:31:07;;;;;;;2.10;1.00;;;;;;;-141.50;100.00;63355.56;5079691;28;20055;-81
2022/05/19 10:33:36;;;;;;;2.78;1.33;;;;;;;-141.50;100.00;63355.56;5066478;28;20049;-80
2022/05/19 10:36:26;;;;;;;2.47;1.33;;;;;;;-141.50;100.00;63355.56;5074598;28;20124;-82
2022/05/19 10:39:11;;;;;;;1.73;1.20;;;;;;;-141.50;100.00;63355.56;5032738;28;20136;-83
2022/05/19 10:42:20;;;;;;;2.72;1.13;;;;;;;-141.50;100.00;63355.56;5078492;28;20045;-81
2022/05/19 10:45:07;;;;;;;2.35;1.35;;;;;;;-141.50;100.00;63355.56;5050567;28;20167;-81
2022/05/19 10:47:46;;;;;;;4.45;1.27;;;;;;;-141.50;100.00;63355.56;5074507;28;20076;-81
2022/05/19 10:50:23;;;;;;;5.53;1.40;;;;;;;-141.50;100.00;63355.56;5055996;28;20056;-81
2022/05/19 10:53:18;;;;;;;5.63;1.38;;;;;;;-141.50;100.00;63355.56;5071800;28;20056;-80
2022/05/19 10:56:22;;;;;;;2.50;1.30;;;;;;;-141.50;100.00;63355.56;5094965;28;20052;-79
2022/05/19 10:59:18;;;;;;;1.88;1.35;;;;;;;-141.50;100.00;63355.56;5088264;28;20094;-82
2022/05/19 11:02:28;;;;;;;2.80;1.20;;;;;;;-141.50;100.00;63355.56;5058903;28;20044;-83
2022/05/19 11:05:09;;;;;;;3.47;1.27;;;;;;;-141.50;100.00;63355.56;5063074;28;20055;-82
2022/05/19 11:07:41;;;;;;;8.13;1.40;;;;;;;-141.50;100.00;63355.56;5074857;28;20044;-83
2022/05/19 11:10:15;;;;;;;3.70;1.58;;;;;;;-141.50;100.00;63355.56;5061243;28;20113;-80
2022/05/19 11:13:02;;;;;;;4.78;1.55;;;;;;;-141.50;100.00;63355.56;5079992;28;20048;-83
2022/05/19 11:15:43;;;;;;;2.90;1.42;;;;;;;-141.50;100.00;63355.56;5075149;28;20444;-83
2022/05/19 11:18:28;;;;;;;7.70;1.45;;;;;;;-141.50;100.00;63355.56;5094553;28;20052;-82
2022/05/19 11:21:16;;;;;;;2.55;1.30;;;;;;;-141.50;100.00;63355.56;5076677;28;20079;-84
2022/05/19 11:23:49;;;;;;;3.42;1.35;;;;;;;-141.50;100.00;63355.56;5095079;28;20084;-84
2022/05/19 11:26:26;;;;;;;4.50;1.20;;;;;;;-141.50;100.00;63355.56;5091655;28;20084;-82
2022/05/19 11:28:53;;;;;;;4.40;1.40;;;;;;;-141.50;100.00;63355.56;5092198;28;20044;-81
2022/05/19 11:31:30;;;;;;;5.20;1.20;;;;;;;-141.50;100.00;63355.56;5092127;28;20090;-82
2022/05/19 11:33:59;;;;;;;3.88;1.10;;;;;;;-141.50;100.00;63355.56;5091759;28;20051;-81
2022/05/19 11:36:34;;;;;;;2.78;1.20;;;;;;;-141.50;100.00;63355.56;5074023;28;20075;-81
2022/05/19 11:39:39;;;;;;;4.25;1.17;;;;;;;-141.50;100.00;63355.56;5074282;28;20112;-80
2022/05/19 11:42:25;;;;;;;2.55;1.45;;;;;;;-141.50;100.00;63355.56;5031565;28;20106;-81
2022/05/19 11:44:52;;;;;;;5.57;1.30;;;;;;;-141.50;100.00;63355.56;5073967;28;20348;-83